Time;durP1;ratioP1;P1;durP2;ratioP2;P2;SDS_P1;SDS_P2;PMS_P1;PMS_P2;Temp;Humidity;BMP_temperature;BMP_pressure;BME280_temperature;BME280_humidity;BME280_pressure;Samples;Min_cycle;Max_cycle;Signal;HPM_P1;HPM_P2
2023/10/11 00:01:49;;;;;;;8.82;6.30;;;16.10;99.90;;;;;;5106275;28;20461;-68
2023/10/11 00:04:23;;;;;;;12.88;7.00;;;16.10;99.90;;;;;;5109220;28;20467;-68
2023/10/11 00:06:51;;;;;;;11.93;6.83;;;16.10;99.90;;;;;;5105956;28;20052;-68
2023/10/11 00:09:16;;;;;;;15.15;8.18;;;16.10;99.90;;;;;;5104029;28;20281;-68
2023/10/11 00:11:42;;;;;;;13.73;7.75;;;16.20;99.90;;;;;;5108585;28;20069;-68
2023/10/11 00:14:08;;;;;;;12.95;7.35;;;16.10;99.90;;;;;;5108881;28;20393;-68
2023/10/11 00:16:35;;;;;;;14.20;8.00;;;16.10;99.90;;;;;;5102213;28;20110;-68
2023/10/11 00:19:01;;;;;;;11.77;7.22;;;16.10;99.90;;;;;;5135524;27;20051;-68
2023/10/11 00:21:42;;;;;;;12.90;7.85;;;16.10;99.90;;;;;;5106593;28;20088;-68
2023/10/11 00:24:07;;;;;;;15.80;9.00;;;16.10;99.90;;;;;;5104573;28;20039;-68
2023/10/11 00:26:40;;;;;;;18.58;8.25;;;16.10;99.90;;;;;;5106060;28;20050;-68
2023/10/11 00:29:05;;;;;;;13.82;9.40;;;16.20;99.90;;;;;;5137181;27;20414;-68
2023/10/11 00:31:33;;;;;;;15.35;8.25;;;16.00;99.90;;;;;;5106695;28;20047;-68
2023/10/11 00:33:59;;;;;;;17.75;8.25;;;16.00;99.90;;;;;;5106856;28;20035;-68
2023/10/11 00:36:29;;;;;;;15.25;8.10;;;16.00;99.90;;;;;;5108820;28;20496;-68
2023/10/11 00:38:56;;;;;;;13.23;8.43;;;16.00;99.90;;;;;;5104857;28;20040;-68
2023/10/11 00:41:25;;;;;;;17.15;8.68;;;15.90;99.90;;;;;;5102317;28;20044;-68
2023/10/11 00:43:52;;;;;;;13.90;8.18;;;16.00;99.90;;;;;;5107146;28;20131;-68
2023/10/11 00:46:24;;;;;;;12.45;8.60;;;16.00;99.90;;;;;;5103251;28;20051;-68
2023/10/11 00:48:54;;;;;;;16.63;9.55;;;16.00;99.90;;;;;;5135549;27;20077;-68
2023/10/11 00:51:31;;;;;;;15.48;9.30;;;15.90;99.90;;;;;;5104134;28;20131;-68
2023/10/11 00:53:58;;;;;;;21.23;10.52;;;15.90;99.90;;;;;;5105898;28;20035;-68
2023/10/11 00:56:31;;;;;;;16.17;9.15;;;16.00;99.90;;;;;;5104957;28;20044;-68
2023/10/11 00:58:58;;;;;;;20.55;8.95;;;15.80;99.90;;;;;;5102586;28;20925;-68
2023/10/11 01:01:24;;;;;;;16.73;9.35;;;15.90;99.90;;;;;;5067179;28;1076973;-68
2023/10/11 01:03:52;;;;;;;17.20;9.77;;;15.90;99.90;;;;;;5105655;27;20058;-68
2023/10/11 01:06:18;;;;;;;16.85;10.13;;;15.90;99.90;;;;;;5137737;27;20040;-68
2023/10/11 01:08:43;;;;;;;15.60;9.45;;;16.00;99.90;;;;;;5134215;27;20043;-68
2023/10/11 01:11:13;;;;;;;20.00;11.02;;;15.90;99.90;;;;;;5091163;28;20498;-68
2023/10/11 01:13:40;;;;;;;15.60;10.90;;;15.90;99.90;;;;;;5103584;27;20046;-68
2023/10/11 01:16:08;;;;;;;22.15;11.77;;;15.90;99.90;;;;;;5107531;27;20040;-68
2023/10/11 01:18:34;;;;;;;17.60;10.50;;;15.90;99.90;;;;;;5136987;27;20043;-68
2023/10/11 01:21:03;;;;;;;19.60;11.20;;;15.90;99.90;;;;;;5102910;27;20062;-68
2023/10/11 01:23:29;;;;;;;18.83;11.32;;;15.90;99.90;;;;;;5101808;27;20038;-68
2023/10/11 01:25:55;;;;;;;25.77;11.85;;;16.30;99.90;;;;;;5107650;27;20027;-68
2023/10/11 01:28:22;;;;;;;18.38;11.07;;;16.00;99.90;;;;;;5103243;27;20035;-68
2023/10/11 01:30:47;;;;;;;17.50;11.00;;;15.90;99.90;;;;;;5104992;27;20032;-68
2023/10/11 01:33:16;;;;;;;19.23;11.38;;;16.10;99.90;;;;;;5105186;28;20043;-68
2023/10/11 01:35:42;;;;;;;22.23;12.85;;;16.10;99.90;;;;;;5101980;27;20043;-68
2023/10/11 01:38:08;;;;;;;21.80;11.63;;;16.00;99.90;;;;;;5105856;28;20063;-68
2023/10/11 01:40:33;;;;;;;27.98;12.52;;;16.20;99.90;;;;;;5102271;27;20668;-68
2023/10/11 01:43:03;;;;;;;19.40;11.55;;;16.00;99.90;;;;;;5106910;27;20044;-68
2023/10/11 01:45:28;;;;;;;21.50;12.10;;;16.10;99.90;;;;;;5108375;27;20051;-68
2023/10/11 01:47:57;;;;;;;17.10;11.23;;;16.00;99.90;;;;;;5133593;27;20508;-68
2023/10/11 01:50:24;;;;;;;18.75;11.50;;;16.00;99.90;;;;;;5105115;28;20530;-68
2023/10/11 01:52:50;;;;;;;21.70;10.77;;;15.90;99.90;;;;;;5106194;28;20067;-68
2023/10/11 01:55:17;;;;;;;20.92;12.25;;;16.00;99.90;;;;;;5104489;27;20039;-68
2023/10/11 01:57:48;;;;;;;22.00;12.15;;;15.90;99.90;;;;;;5107551;27;20151;-68
2023/10/11 02:00:15;;;;;;;21.77;12.05;;;15.90;99.90;;;;;;5136948;27;20036;-68
2023/10/11 02:02:47;;;;;;;20.15;11.65;;;15.90;99.90;;;;;;5136142;27;20501;-68
2023/10/11 02:05:14;;;;;;;18.73;12.57;;;15.90;99.90;;;;;;5133718;27;20765;-68
2023/10/11 02:07:40;;;;;;;17.92;11.88;;;15.90;99.90;;;;;;5104929;28;20039;-68
2023/10/11 02:10:11;;;;;;;20.13;12.00;;;15.90;99.90;;;;;;5104370;28;20511;-68
2023/10/11 02:12:39;;;;;;;24.02;12.73;;;15.90;99.90;;;;;;5106272;27;20122;-68
2023/10/11 02:15:09;;;;;;;24.83;12.43;;;15.90;99.90;;;;;;5104184;27;20517;-68
2023/10/11 02:17:38;;;;;;;24.15;11.77;;;15.80;99.90;;;;;;5103445;28;20496;-68
2023/10/11 02:20:13;;;;;;;25.67;13.23;;;15.90;99.90;;;;;;5130500;27;20412;-68
2023/10/11 02:22:43;;;;;;;20.23;12.27;;;15.90;99.90;;;;;;5103596;28;20123;-68
2023/10/11 02:25:13;;;;;;;18.13;12.52;;;15.80;99.90;;;;;;5104677;28;20051;-68
2023/10/11 02:27:44;;;;;;;23.65;12.35;;;15.80;99.90;;;;;;5135510;27;20052;-68
2023/10/11 02:30:13;;;;;;;18.73;12.25;;;15.80;99.90;;;;;;5104590;27;20036;-68
2023/10/11 02:32:42;;;;;;;21.15;12.35;;;15.80;99.90;;;;;;5104352;27;20044;-68
2023/10/11 02:35:12;;;;;;;24.63;12.30;;;15.70;99.90;;;;;;5106112;27;20050;-68
2023/10/11 02:37:37;;;;;;;20.17;12.05;;;15.80;99.90;;;;;;5135870;27;20047;-68
2023/10/11 02:40:07;;;;;;;19.73;11.75;;;15.80;99.90;;;;;;5131904;27;20497;-68
2023/10/11 02:42:36;;;;;;;15.20;11.02;;;15.80;99.90;;;;;;5104852;27;20047;-68
2023/10/11 02:45:06;;;;;;;27.00;12.82;;;15.80;99.90;;;;;;5102666;28;20052;-68
2023/10/11 02:47:35;;;;;;;21.27;11.75;;;15.80;99.90;;;;;;5104181;28;20501;-68
2023/10/11 02:50:07;;;;;;;21.05;11.82;;;15.70;99.90;;;;;;5103190;28;20481;-68
2023/10/11 02:52:35;;;;;;;24.98;12.27;;;15.80;99.90;;;;;;5102877;28;20046;-68
2023/10/11 02:55:20;;;;;;;17.60;11.23;;;15.80;99.90;;;;;;5103096;28;20493;-68
2023/10/11 02:57:46;;;;;;;18.23;12.20;;;15.80;99.90;;;;;;5103384;28;20043;-68
2023/10/11 03:00:22;;;;;;;21.35;11.90;;;15.80;99.90;;;;;;5102858;28;20394;-68
2023/10/11 03:02:55;;;;;;;21.77;13.13;;;15.80;99.90;;;;;;5104883;28;20043;-68
2023/10/11 03:05:27;;;;;;;21.23;11.90;;;16.00;99.90;;;;;;5102613;28;20043;-68
2023/10/11 03:07:56;;;;;;;20.85;11.60;;;15.80;99.90;;;;;;5104760;28;20096;-68
2023/10/11 03:10:22;;;;;;;26.40;12.10;;;15.80;99.90;;;;;;5105194;28;20059;-68
2023/10/11 03:12:51;;;;;;;28.25;12.73;;;15.90;99.90;;;;;;5103538;28;20032;-68
2023/10/11 03:15:19;;;;;;;21.08;11.57;;;16.00;99.90;;;;;;5106169;28;20079;-68
2023/10/11 03:17:52;;;;;;;21.73;11.70;;;15.80;99.90;;;;;;5132520;27;20031;-68
2023/10/11 03:20:36;;;;;;;19.30;12.00;;;15.70;99.90;;;;;;5103874;28;20107;-68
2023/10/11 03:23:10;;;;;;;24.20;11.38;;;15.80;99.90;;;;;;5084957;28;20042;-68
2023/10/11 03:25:38;;;;;;;20.50;10.98;;;15.70;99.90;;;;;;5102072;28;20557;-68
2023/10/11 03:28:05;;;;;;;21.23;11.43;;;15.70;99.90;;;;;;5102720;28;20432;-68
2023/10/11 03:30:35;;;;;;;25.15;11.55;;;15.70;99.90;;;;;;5102787;28;20890;-68
2023/10/11 03:33:06;;;;;;;17.52;11.93;;;15.60;99.90;;;;;;5105304;28;20484;-68
2023/10/11 03:35:38;;;;;;;24.65;11.52;;;15.80;99.90;;;;;;5132444;27;20044;-68
2023/10/11 03:38:16;;;;;;;28.08;12.05;;;15.70;99.90;;;;;;5100488;28;20490;-68
2023/10/11 03:40:54;;;;;;;19.77;10.45;;;15.70;99.90;;;;;;5103095;28;20048;-68
2023/10/11 03:43:21;;;;;;;22.75;11.00;;;15.70;99.90;;;;;;5135373;27;20273;-68
2023/10/11 03:45:57;;;;;;;27.70;12.10;;;15.90;99.90;;;;;;5132098;27;20052;-68
2023/10/11 03:48:28;;;;;;;17.08;9.95;;;15.70;99.90;;;;;;5104539;28;20435;-68
2023/10/11 03:50:57;;;;;;;25.70;10.50;;;15.80;99.90;;;;;;5104104;28;20047;-68
2023/10/11 03:53:22;;;;;;;27.45;11.90;;;15.70;99.90;;;;;;5122794;27;20039;-67
2023/10/11 03:55:49;;;;;;;23.52;11.07;;;15.80;99.90;;;;;;5107311;28;20377;-68
2023/10/11 04:01:23;;;;;;;22.27;11.00;;;15.80;99.90;;;;;;5138257;27;20079;-68
2023/10/11 04:03:49;;;;;;;21.58;10.75;;;15.80;99.90;;;;;;5107371;27;20058;-68
2023/10/11 04:06:15;;;;;;;22.05;11.00;;;15.80;99.90;;;;;;5136926;27;20028;-68
2023/10/11 04:08:54;;;;;;;20.50;11.20;;;15.80;99.90;;;;;;5104921;28;21453;-68
2023/10/11 04:11:30;;;;;;;22.08;10.68;;;15.90;99.90;;;;;;5135411;27;20043;-68
2023/10/11 04:13:59;;;;;;;20.85;11.85;;;15.90;99.90;;;;;;5109916;27;20023;-68
2023/10/11 04:16:28;;;;;;;18.50;10.15;;;16.10;99.90;;;;;;5104537;27;20043;-68
2023/10/11 04:18:53;;;;;;;25.70;10.82;;;15.90;99.90;;;;;;5104245;27;20796;-68
2023/10/11 04:21:26;;;;;;;27.85;10.73;;;15.90;99.90;;;;;;5109361;27;20027;-68
2023/10/11 04:23:58;;;;;;;21.90;10.68;;;15.90;99.90;;;;;;5109513;27;20389;-68
2023/10/11 04:26:37;;;;;;;22.42;11.02;;;15.90;99.90;;;;;;5105051;27;20578;-67
2023/10/11 04:29:06;;;;;;;20.60;10.48;;;16.00;99.90;;;;;;5106308;27;20489;-68
2023/10/11 04:34:23;;;;;;;22.85;11.50;;;16.00;99.90;;;;;;5107112;27;20056;-68
2023/10/11 04:36:51;;;;;;;20.75;11.23;;;16.00;99.90;;;;;;5137331;27;20057;-68
2023/10/11 04:39:27;;;;;;;23.17;11.35;;;16.00;99.90;;;;;;5107941;27;20077;-68
2023/10/11 04:41:57;;;;;;;24.23;11.43;;;16.00;99.90;;;;;;5105606;27;20040;-68
2023/10/11 04:44:54;;;;;;;20.60;11.25;;;16.00;99.90;;;;;;5105133;27;20097;-67
2023/10/11 04:47:21;;;;;;;20.00;10.38;;;16.00;99.90;;;;;;5101206;28;20130;-67
2023/10/11 04:49:48;;;;;;;30.38;11.93;;;16.00;99.90;;;;;;5107562;28;20036;-67
2023/10/11 04:52:22;;;;;;;25.02;9.98;;;16.00;99.90;;;;;;5103791;28;20113;-68
2023/10/11 04:54:54;;;;;;;21.58;10.63;;;16.00;99.90;;;;;;5109347;28;20042;-68
2023/10/11 04:58:12;;;;;;;20.85;10.23;;;16.00;99.90;;;;;;5102775;27;20040;-67
2023/10/11 05:00:10;;;;;;;27.27;11.80;;;16.00;99.90;;;;;;5097152;27;20075;-67
2023/10/11 05:02:38;;;;;;;24.33;11.02;;;16.00;99.90;;;;;;5136549;27;20101;-67
2023/10/11 05:05:10;;;;;;;24.33;10.45;;;16.10;99.90;;;;;;5103016;27;20826;-67
2023/10/11 05:07:42;;;;;;;21.05;11.40;;;16.00;99.90;;;;;;5100243;28;20055;-68
2023/10/11 05:12:57;;;;;;;21.63;10.68;;;16.00;99.90;;;;;;5105838;28;20052;-67
2023/10/11 05:15:29;;;;;;;24.75;11.07;;;16.00;99.90;;;;;;5105284;28;20470;-67
2023/10/11 05:18:02;;;;;;;22.02;11.52;;;16.10;99.90;;;;;;5102453;27;20110;-67
2023/10/11 05:23:06;;;;;;;24.77;12.63;;;16.00;99.90;;;;;;5136165;27;20047;-68
2023/10/11 05:25:45;;;;;;;27.23;13.23;;;16.10;99.90;;;;;;5104676;27;20362;-67
2023/10/11 05:31:22;;;;;;;24.48;12.05;;;16.00;99.90;;;;;;5100499;28;20409;-68
2023/10/11 05:34:12;;;;;;;22.52;11.65;;;16.00;99.90;;;;;;5104418;28;20063;-68
2023/10/11 05:52:55;;;;;;;23.13;11.98;;;15.90;99.90;;;;;;5105431;27;20048;-68
2023/10/11 05:55:24;;;;;;;24.20;12.10;;;15.90;99.90;;;;;;5104737;27;20039;-67
2023/10/11 05:57:50;;;;;;;26.70;12.18;;;15.90;99.90;;;;;;5131743;27;20064;-68
2023/10/11 06:00:23;;;;;;;29.73;13.10;;;15.90;99.90;;;;;;5103381;27;20052;-68
2023/10/11 06:02:51;;;;;;;27.55;14.13;;;15.90;99.90;;;;;;5104406;28;20040;-67
2023/10/11 06:05:22;;;;;;;29.13;14.30;;;15.90;99.90;;;;;;5101243;27;20036;-67
2023/10/11 06:08:00;;;;;;;21.80;12.55;;;15.90;99.90;;;;;;5104112;27;20666;-67
2023/10/11 06:10:35;;;;;;;22.90;13.65;;;15.90;99.90;;;;;;5105437;27;20042;-68
2023/10/11 06:13:05;;;;;;;26.10;14.20;;;15.90;99.90;;;;;;5104019;27;20092;-67
2023/10/11 06:15:34;;;;;;;25.70;13.35;;;15.90;99.90;;;;;;5105626;27;20067;-67
2023/10/11 06:18:01;;;;;;;29.15;13.50;;;15.90;99.90;;;;;;5106367;27;20043;-68
2023/10/11 06:20:27;;;;;;;26.85;13.32;;;16.00;99.90;;;;;;5103560;28;20653;-68
2023/10/11 06:22:56;;;;;;;24.73;13.00;;;16.00;99.90;;;;;;5104825;27;20137;-68
2023/10/11 06:25:23;;;;;;;26.35;14.23;;;15.90;99.90;;;;;;5135992;27;20043;-68
2023/10/11 06:30:24;;;;;;;30.08;14.43;;;16.00;99.90;;;;;;5096799;27;20078;-68
2023/10/11 06:32:50;;;;;;;24.45;12.77;;;16.00;99.90;;;;;;5101314;27;20051;-67
2023/10/11 06:35:23;;;;;;;22.55;12.88;;;16.10;99.90;;;;;;5129361;27;20648;-67
2023/10/11 06:37:54;;;;;;;27.90;14.38;;;16.00;99.90;;;;;;5103843;27;20094;-67
2023/10/11 06:43:09;;;;;;;27.58;14.68;;;16.10;99.90;;;;;;5130524;27;20141;-67
2023/10/11 06:45:35;;;;;;;26.60;14.38;;;16.10;99.90;;;;;;5103099;27;20047;-67
2023/10/11 06:48:07;;;;;;;24.67;14.20;;;16.10;99.90;;;;;;5133969;27;20043;-67
2023/10/11 06:50:37;;;;;;;24.98;14.60;;;16.10;99.90;;;;;;5130386;27;20123;-67
2023/10/11 06:53:10;;;;;;;36.15;16.10;;;16.20;99.90;;;;;;5105277;28;20051;-67
2023/10/11 06:55:39;;;;;;;31.05;14.57;;;16.20;99.90;;;;;;5104054;27;20654;-68
2023/10/11 06:58:15;;;;;;;25.20;15.05;;;16.20;99.90;;;;;;5099100;28;20042;-67
2023/10/11 07:00:45;;;;;;;27.10;15.65;;;16.20;99.90;;;;;;5101396;28;20051;-67
2023/10/11 07:05:56;;;;;;;28.15;14.68;;;16.20;99.90;;;;;;5107443;28;20051;-68
2023/10/11 07:08:31;;;;;;;26.13;16.27;;;16.20;99.90;;;;;;5092774;28;20085;-68
2023/10/11 07:11:16;;;;;;;29.75;14.18;;;16.30;99.90;;;;;;5118399;27;20039;-67
2023/10/11 07:14:00;;;;;;;30.10;14.55;;;16.30;99.90;;;;;;5103393;28;20085;-67
2023/10/11 07:16:27;;;;;;;24.73;15.00;;;16.30;99.90;;;;;;5097831;28;20486;-67
2023/10/11 07:18:55;;;;;;;32.28;15.18;;;16.30;99.90;;;;;;5101425;28;20039;-67
2023/10/11 07:21:41;;;;;;;26.60;15.48;;;16.30;99.90;;;;;;5103407;28;20066;-67
2023/10/11 07:24:19;;;;;;;30.35;14.73;;;16.30;99.90;;;;;;5100508;28;20541;-67
2023/10/11 07:29:13;;;;;;;33.22;15.65;;;16.30;99.90;;;;;;5132995;27;20079;-67
2023/10/11 07:31:48;;;;;;;28.65;14.85;;;16.30;99.90;;;;;;5106620;27;20594;-67
2023/10/11 07:34:17;;;;;;;24.27;14.90;;;16.40;99.90;;;;;;5108382;27;20400;-67
2023/10/11 07:36:43;;;;;;;33.47;15.32;;;16.40;99.90;;;;;;5101220;27;20036;-67
2023/10/11 07:39:20;;;;;;;27.58;15.38;;;16.50;99.90;;;;;;5103468;27;20040;-67
2023/10/11 07:41:49;;;;;;;36.17;15.80;;;16.50;99.90;;;;;;5104512;27;20563;-68
2023/10/11 07:44:18;;;;;;;33.17;15.40;;;16.50;99.90;;;;;;5104132;27;20044;-67
2023/10/11 07:46:48;;;;;;;27.02;15.82;;;16.50;99.90;;;;;;5103724;27;20552;-67
2023/10/11 07:49:22;;;;;;;30.60;17.17;;;16.50;99.90;;;;;;5102131;27;20833;-67
2023/10/11 07:51:52;;;;;;;32.37;16.83;;;16.50;99.90;;;;;;5100585;27;20055;-67
2023/10/11 07:54:21;;;;;;;28.48;16.75;;;16.50;99.90;;;;;;5101412;27;20043;-67
2023/10/11 07:56:49;;;;;;;36.10;17.23;;;16.50;99.90;;;;;;5100647;28;20032;-67
2023/10/11 07:59:14;;;;;;;28.02;16.70;;;16.50;99.90;;;;;;5102901;27;20039;-68
2023/10/11 08:01:43;;;;;;;29.10;16.13;;;16.50;99.90;;;;;;5100976;27;20040;-68
2023/10/11 08:04:17;;;;;;;34.03;16.85;;;16.60;99.90;;;;;;5101397;27;20128;-67
2023/10/11 08:06:44;;;;;;;33.15;16.73;;;16.60;99.90;;;;;;5099916;27;20126;-68
2023/10/11 08:09:18;;;;;;;31.67;16.83;;;16.60;99.90;;;;;;5103073;27;20039;-67
2023/10/11 08:11:53;;;;;;;32.15;16.80;;;16.60;99.90;;;;;;5105033;27;20056;-68
2023/10/11 08:14:22;;;;;;;30.90;17.05;;;16.60;99.90;;;;;;5106578;27;20397;-68
2023/10/11 08:16:51;;;;;;;30.52;15.57;;;16.70;99.90;;;;;;5106016;27;20389;-68
2023/10/11 08:19:18;;;;;;;29.48;17.08;;;16.70;99.90;;;;;;5110145;27;20046;-68
2023/10/11 08:21:54;;;;;;;34.83;18.33;;;16.70;99.90;;;;;;5112890;27;20426;-68
2023/10/11 08:24:25;;;;;;;38.78;17.45;;;16.70;99.90;;;;;;5105353;27;20047;-67
2023/10/11 08:26:52;;;;;;;26.17;15.85;;;16.70;99.90;;;;;;5105445;27;20060;-68
2023/10/11 08:29:30;;;;;;;27.95;16.98;;;16.70;99.90;;;;;;5105418;27;20547;-68
2023/10/11 08:32:00;;;;;;;38.03;17.27;;;16.70;99.90;;;;;;5134629;27;20139;-67
2023/10/11 08:34:27;;;;;;;35.67;17.25;;;16.80;99.90;;;;;;5140411;27;20481;-68
2023/10/11 08:36:56;;;;;;;34.65;17.50;;;16.80;99.90;;;;;;5106222;27;20031;-68
2023/10/11 08:39:35;;;;;;;33.50;18.73;;;16.80;99.90;;;;;;5105265;27;20040;-68
2023/10/11 08:42:06;;;;;;;35.22;19.27;;;16.80;99.90;;;;;;5118049;27;20040;-68
2023/10/11 08:44:32;;;;;;;28.67;16.70;;;16.90;99.90;;;;;;5104525;27;20057;-68
2023/10/11 08:47:03;;;;;;;27.48;16.42;;;16.80;99.90;;;;;;5102720;27;20122;-68
2023/10/11 08:49:29;;;;;;;33.20;18.52;;;16.90;99.90;;;;;;5116475;27;20853;-68
2023/10/11 08:52:00;;;;;;;28.75;17.00;;;16.80;99.90;;;;;;5101283;27;20130;-67
2023/10/11 08:54:31;;;;;;;31.48;16.52;;;16.90;99.90;;;;;;5100869;27;20385;-68
2023/10/11 08:57:03;;;;;;;27.67;15.85;;;16.90;99.90;;;;;;5103028;27;20123;-68
2023/10/11 08:59:31;;;;;;;33.53;16.80;;;16.90;99.90;;;;;;5103811;27;20055;-68
2023/10/11 09:02:07;;;;;;;32.03;15.95;;;16.90;99.90;;;;;;5100378;27;20444;-68
2023/10/11 09:04:56;;;;;;;27.42;15.65;;;17.00;99.90;;;;;;5132343;27;20044;-68
2023/10/11 09:07:45;;;;;;;24.05;14.60;;;17.00;99.90;;;;;;5101230;27;20083;-68
2023/10/11 09:10:27;;;;;;;27.15;14.27;;;17.00;99.90;;;;;;5098325;27;20059;-68
2023/10/11 09:12:57;;;;;;;24.50;13.38;;;17.00;99.90;;;;;;5132656;27;20080;-68
2023/10/11 09:15:32;;;;;;;25.80;13.75;;;17.00;99.90;;;;;;5131732;27;20048;-68
2023/10/11 09:18:17;;;;;;;28.13;14.15;;;17.10;99.90;;;;;;5131459;27;20051;-68
2023/10/11 09:20:50;;;;;;;19.88;11.93;;;17.10;99.90;;;;;;5080006;28;20039;-68
2023/10/11 09:23:21;;;;;;;24.98;14.18;;;17.10;99.90;;;;;;5134953;27;20035;-68
2023/10/11 09:25:59;;;;;;;24.02;12.77;;;17.20;99.90;;;;;;5134283;27;20047;-68
2023/10/11 09:28:33;;;;;;;25.67;12.90;;;17.20;99.90;;;;;;5099939;27;20043;-68
2023/10/11 09:31:12;;;;;;;28.83;13.70;;;17.20;99.90;;;;;;5103204;27;20093;-68
2023/10/11 09:33:40;;;;;;;22.30;11.65;;;17.20;99.90;;;;;;5100921;27;20040;-69
2023/10/11 09:36:07;;;;;;;22.75;11.55;;;17.30;99.90;;;;;;5104096;27;20071;-68
2023/10/11 09:38:40;;;;;;;22.40;9.90;;;17.30;99.90;;;;;;5101874;27;20060;-69
2023/10/11 09:41:07;;;;;;;20.88;9.77;;;17.30;99.90;;;;;;5101566;27;20405;-68
2023/10/11 09:43:46;;;;;;;15.43;8.93;;;17.30;99.90;;;;;;5100120;27;20474;-68
2023/10/11 09:46:13;;;;;;;20.38;9.35;;;17.40;99.90;;;;;;5101146;27;20497;-68
2023/10/11 09:48:42;;;;;;;17.38;8.25;;;17.40;99.90;;;;;;5099149;27;20047;-68
2023/10/11 09:51:15;;;;;;;13.57;7.68;;;17.40;99.90;;;;;;5097825;28;20070;-68
2023/10/11 09:53:42;;;;;;;9.90;6.82;;;17.50;99.90;;;;;;5102563;27;20109;-68
2023/10/11 09:56:17;;;;;;;12.98;6.78;;;17.40;99.90;;;;;;5132407;27;20135;-68
2023/10/11 09:59:19;;;;;;;12.75;6.40;;;17.50;99.90;;;;;;5126806;27;20054;-69
2023/10/11 10:02:07;;;;;;;11.30;5.97;;;17.60;99.90;;;;;;5097602;27;20126;-68
2023/10/11 10:04:51;;;;;;;14.70;7.20;;;17.60;99.90;;;;;;5099439;28;20043;-68
2023/10/11 10:07:26;;;;;;;10.23;5.22;;;17.70;99.90;;;;;;5104294;27;20048;-68
2023/10/11 10:09:59;;;;;;;14.38;6.22;;;17.80;99.90;;;;;;5085249;28;20138;-68
2023/10/11 10:12:31;;;;;;;12.57;5.85;;;18.00;99.90;;;;;;5099393;27;20042;-68
2023/10/11 10:15:14;;;;;;;13.07;5.82;;;18.10;99.90;;;;;;5096721;27;20140;-68
2023/10/11 10:18:03;;;;;;;12.68;5.15;;;18.20;99.90;;;;;;5097054;27;20497;-68
2023/10/11 10:20:38;;;;;;;11.43;4.82;;;18.20;99.90;;;;;;5096922;28;20043;-68
2023/10/11 10:23:16;;;;;;;11.48;5.20;;;18.20;99.90;;;;;;5132076;27;20048;-68
2023/10/11 10:25:46;;;;;;;14.90;5.15;;;18.30;99.90;;;;;;5129547;27;20048;-68
2023/10/11 10:28:36;;;;;;;8.30;4.07;;;18.40;99.90;;;;;;5100050;28;20051;-68
2023/10/11 10:31:17;;;;;;;9.30;4.28;;;18.40;99.90;;;;;;5098459;27;20407;-68
2023/10/11 10:33:49;;;;;;;7.70;4.00;;;18.50;99.90;;;;;;5100809;28;20531;-68
2023/10/11 10:36:21;;;;;;;7.03;3.67;;;18.60;99.90;;;;;;5131075;27;20078;-68
2023/10/11 10:41:44;;;;;;;15.02;5.45;;;18.60;99.90;;;;;;5090458;27;20139;-68
2023/10/11 10:44:17;;;;;;;11.10;3.93;;;18.60;99.90;;;;;;5102676;28;20122;-68
2023/10/11 10:46:53;;;;;;;7.50;4.40;;;18.50;99.90;;;;;;5099317;28;20709;-69
2023/10/11 10:49:23;;;;;;;11.30;4.68;;;18.50;99.90;;;;;;5098553;28;20036;-68
2023/10/11 10:51:48;;;;;;;7.57;4.80;;;18.50;99.90;;;;;;5100841;28;20840;-68
2023/10/11 10:54:17;;;;;;;9.18;4.18;;;18.60;99.90;;;;;;5099583;28;20043;-68
2023/10/11 10:56:47;;;;;;;7.68;3.60;;;18.60;99.90;;;;;;5094770;28;20043;-68
2023/10/11 10:59:15;;;;;;;9.27;3.78;;;18.70;99.90;;;;;;5100423;28;20118;-68
2023/10/11 11:01:44;;;;;;;7.45;3.38;;;18.80;99.90;;;;;;5097690;28;20047;-68
2023/10/11 11:04:15;;;;;;;9.75;5.22;;;19.00;99.90;;;;;;5102142;27;20497;-68
2023/10/11 11:06:46;;;;;;;6.85;3.70;;;19.10;99.90;;;;;;5101616;28;20039;-68
2023/10/11 11:09:19;;;;;;;9.88;3.47;;;19.40;99.90;;;;;;5102710;27;20040;-68
2023/10/11 11:11:48;;;;;;;7.82;2.97;;;19.60;99.90;;;;;;5105035;27;20128;-68
2023/10/11 11:14:19;;;;;;;6.78;2.53;;;19.70;99.90;;;;;;5134050;27;20051;-68
2023/10/11 11:16:54;;;;;;;8.07;3.17;;;19.80;99.90;;;;;;5104792;27;20043;-68
2023/10/11 11:19:25;;;;;;;5.60;2.60;;;19.80;99.90;;;;;;5101955;27;20257;-68
2023/10/11 11:22:02;;;;;;;7.28;3.35;;;20.00;99.90;;;;;;5102910;27;20039;-68
2023/10/11 11:24:34;;;;;;;6.35;2.92;;;20.10;99.90;;;;;;5107065;27;20466;-68
2023/10/11 11:27:06;;;;;;;5.45;2.63;;;20.10;99.90;;;;;;5135094;27;20067;-68
2023/10/11 11:29:33;;;;;;;9.82;3.53;;;20.20;99.90;;;;;;5100879;27;20043;-68
2023/10/11 11:32:07;;;;;;;8.32;2.97;;;20.20;99.90;;;;;;5105103;27;20485;-68
2023/10/11 11:34:38;;;;;;;12.00;4.18;;;20.30;99.90;;;;;;5105748;27;20044;-68
2023/10/11 11:37:06;;;;;;;7.15;4.07;;;20.20;99.90;;;;;;5108023;27;20114;-68
2023/10/11 11:39:42;;;;;;;5.45;2.80;;;20.20;99.90;;;;;;5103785;27;20040;-68
2023/10/11 11:42:18;;;;;;;8.30;2.65;;;20.10;99.90;;;;;;5105041;27;20036;-68
2023/10/11 11:44:47;;;;;;;10.65;3.30;;;20.00;99.90;;;;;;5106841;27;20047;-68
2023/10/11 11:47:21;;;;;;;8.18;3.20;;;20.00;99.90;;;;;;5101089;27;20035;-68
2023/10/11 11:49:47;;;;;;;6.75;2.80;;;20.00;99.90;;;;;;5104392;27;20054;-68
2023/10/11 11:52:16;;;;;;;6.35;3.08;;;20.00;99.90;;;;;;5103675;27;20500;-68
2023/10/11 11:54:43;;;;;;;8.57;2.95;;;20.00;99.90;;;;;;5101770;27;20035;-68
2023/10/11 11:57:09;;;;;;;7.70;2.80;;;20.00;99.90;;;;;;5102516;27;20040;-68
2023/10/11 11:59:35;;;;;;;6.68;3.00;;;19.90;99.90;;;;;;5100676;27;20039;-68
2023/10/11 12:02:01;;;;;;;7.05;2.78;;;19.90;99.90;;;;;;5101032;28;20048;-68
2023/10/11 12:04:31;;;;;;;6.15;2.78;;;19.90;99.90;;;;;;5099160;27;20052;-68
2023/10/11 12:06:59;;;;;;;7.30;2.40;;;19.80;99.90;;;;;;5133126;27;20039;-68
2023/10/11 12:09:31;;;;;;;5.22;2.88;;;19.80;99.90;;;;;;5099381;28;20048;-68
2023/10/11 12:12:08;;;;;;;6.25;2.42;;;19.80;99.90;;;;;;5102266;28;20474;-68
2023/10/11 12:14:38;;;;;;;5.78;2.78;;;19.70;99.90;;;;;;5101161;27;20035;-68
2023/10/11 12:17:11;;;;;;;11.70;2.95;;;19.80;99.90;;;;;;5133534;27;20028;-68
2023/10/11 12:19:37;;;;;;;8.52;2.75;;;19.90;99.90;;;;;;5104406;28;20111;-68
2023/10/11 12:22:04;;;;;;;9.23;3.50;;;20.20;99.90;;;;;;5102209;27;20036;-69
2023/10/11 12:24:30;;;;;;;7.03;2.75;;;20.40;99.90;;;;;;5103981;27;20044;-68
2023/10/11 12:26:58;;;;;;;6.72;2.80;;;20.70;99.90;;;;;;5099393;27;20066;-68
2023/10/11 12:29:26;;;;;;;6.50;2.92;;;20.90;99.90;;;;;;5104771;28;20163;-68
2023/10/11 12:31:54;;;;;;;8.93;3.85;;;20.90;99.90;;;;;;5102077;28;20043;-68
2023/10/11 12:34:24;;;;;;;6.40;3.10;;;20.90;99.90;;;;;;5102694;28;20044;-68
2023/10/11 12:36:55;;;;;;;5.28;3.03;;;20.90;99.90;;;;;;5100533;28;20036;-68
2023/10/11 12:39:24;;;;;;;8.73;2.75;;;20.90;99.90;;;;;;5137114;27;20429;-68
2023/10/11 12:41:51;;;;;;;7.05;2.25;;;20.80;99.90;;;;;;5101656;28;20132;-68
2023/10/11 12:44:18;;;;;;;6.57;2.67;;;20.90;99.90;;;;;;5103374;28;20123;-68
2023/10/11 12:46:48;;;;;;;8.45;2.55;;;20.90;99.90;;;;;;5101029;28;20039;-68
2023/10/11 12:49:15;;;;;;;5.35;2.10;;;20.90;99.90;;;;;;5104625;27;20040;-68
2023/10/11 12:51:47;;;;;;;5.30;2.58;;;20.80;99.90;;;;;;5100950;27;20061;-69
2023/10/11 12:54:14;;;;;;;6.00;1.85;;;20.70;99.90;;;;;;5106554;27;20483;-68
2023/10/11 12:56:42;;;;;;;5.57;2.83;;;20.60;99.90;;;;;;5102667;28;20089;-68
2023/10/11 12:59:15;;;;;;;6.32;2.55;;;20.50;99.90;;;;;;5102400;27;20040;-68
2023/10/11 13:01:49;;;;;;;10.15;2.90;;;20.40;99.90;;;;;;5133148;27;20071;-68
2023/10/11 13:04:23;;;;;;;11.13;3.13;;;20.40;99.90;;;;;;5102792;28;20043;-68
2023/10/11 13:06:50;;;;;;;4.55;2.03;;;20.40;99.90;;;;;;5139281;27;20130;-68
2023/10/11 13:09:21;;;;;;;3.97;1.63;;;20.40;99.90;;;;;;5101919;28;20047;-68
2023/10/11 13:11:47;;;;;;;5.97;2.25;;;20.40;99.90;;;;;;5102689;28;20047;-68
2023/10/11 13:14:20;;;;;;;7.05;2.97;;;20.40;99.90;;;;;;5105872;28;20070;-68
2023/10/11 13:16:54;;;;;;;6.05;2.25;;;20.40;99.90;;;;;;5100897;28;20039;-68
2023/10/11 13:19:22;;;;;;;5.75;3.13;;;20.30;99.90;;;;;;5101107;28;20040;-68
2023/10/11 13:21:49;;;;;;;4.97;2.50;;;20.20;99.90;;;;;;5102815;27;20097;-68
2023/10/11 13:24:25;;;;;;;6.65;2.15;;;20.20;99.90;;;;;;5102170;28;20050;-68
2023/10/11 13:26:58;;;;;;;10.65;2.20;;;20.20;99.90;;;;;;5135421;27;20046;-68
2023/10/11 13:29:25;;;;;;;7.13;2.00;;;20.10;99.90;;;;;;5102860;27;20078;-68
2023/10/11 13:31:56;;;;;;;4.50;1.98;;;20.20;99.90;;;;;;5100902;28;20044;-68
2023/10/11 13:34:28;;;;;;;9.25;2.33;;;20.20;99.90;;;;;;5106979;27;20701;-68
2023/10/11 13:36:58;;;;;;;7.22;2.00;;;20.10;99.90;;;;;;5102731;27;20051;-68